sensor_id;sensor_type;location;lat;lon;timestamp;pressure;altitude;pressure_sealevel;temperature;humidity
15314;BME280;7757;52.626;4.746;2022-09-30T00:01:39;100637.94;;;20.79;57.81
15314;BME280;7757;52.626;4.746;2022-09-30T00:04:08;100634.44;;;20.78;57.62
15314;BME280;7757;52.626;4.746;2022-09-30T00:06:35;100636.34;;;20.78;57.72
15314;BME280;7757;52.626;4.746;2022-09-30T00:09:03;100640.13;;;20.77;57.77
15314;BME280;7757;52.626;4.746;2022-09-30T00:11:31;100635.19;;;20.74;57.66
15314;BME280;7757;52.626;4.746;2022-09-30T00:13:59;100639.28;;;20.76;57.88
15314;BME280;7757;52.626;4.746;2022-09-30T00:16:30;100634.97;;;20.75;58.04
15314;BME280;7757;52.626;4.746;2022-09-30T00:18:57;100626.50;;;20.72;57.71
15314;BME280;7757;52.626;4.746;2022-09-30T00:21:25;100633.81;;;20.71;58.21
15314;BME280;7757;52.626;4.746;2022-09-30T00:23:53;100641.97;;;20.71;57.57
15314;BME280;7757;52.626;4.746;2022-09-30T00:26:21;100633.25;;;20.69;57.70
15314;BME280;7757;52.626;4.746;2022-09-30T00:28:50;100638.38;;;20.66;57.66
15314;BME280;7757;52.626;4.746;2022-09-30T00:31:18;100628.34;;;20.66;57.93
15314;BME280;7757;52.626;4.746;2022-09-30T00:33:47;100629.16;;;20.67;57.73
15314;BME280;7757;52.626;4.746;2022-09-30T00:36:31;100637.56;;;20.65;57.95
15314;BME280;7757;52.626;4.746;2022-09-30T00:38:58;100638.63;;;20.64;57.96
15314;BME280;7757;52.626;4.746;2022-09-30T00:41:25;100636.75;;;20.65;57.96
15314;BME280;7757;52.626;4.746;2022-09-30T00:43:52;100636.41;;;20.61;58.50
15314;BME280;7757;52.626;4.746;2022-09-30T00:46:26;100638.06;;;20.62;58.12
15314;BME280;7757;52.626;4.746;2022-09-30T00:48:57;100635.34;;;20.62;57.98
15314;BME280;7757;52.626;4.746;2022-09-30T00:51:28;100634.81;;;20.60;58.01
15314;BME280;7757;52.626;4.746;2022-09-30T00:53:58;100633.09;;;20.54;58.02
15314;BME280;7757;52.626;4.746;2022-09-30T00:56:30;100634.50;;;20.56;58.19
15314;BME280;7757;52.626;4.746;2022-09-30T00:59:02;100633.66;;;20.56;58.39
15314;BME280;7757;52.626;4.746;2022-09-30T01:01:31;100639.09;;;20.56;58.28
15314;BME280;7757;52.626;4.746;2022-09-30T01:04:01;100637.97;;;20.52;57.92
15314;BME280;7757;52.626;4.746;2022-09-30T01:06:28;100645.34;;;20.56;58.18
15314;BME280;7757;52.626;4.746;2022-09-30T01:08:55;100648.06;;;20.56;57.87
15314;BME280;7757;52.626;4.746;2022-09-30T01:11:23;100652.13;;;20.54;58.39
15314;BME280;7757;52.626;4.746;2022-09-30T01:13:52;100642.31;;;20.53;57.74
15314;BME280;7757;52.626;4.746;2022-09-30T01:22:31;100652.38;;;20.52;57.73
15314;BME280;7757;52.626;4.746;2022-09-30T01:25:37;100654.03;;;20.53;57.59
15314;BME280;7757;52.626;4.746;2022-09-30T01:28:29;100652.38;;;20.52;57.71
15314;BME280;7757;52.626;4.746;2022-09-30T01:31:09;100660.19;;;20.49;57.83
15314;BME280;7757;52.626;4.746;2022-09-30T01:33:45;100655.03;;;20.47;58.03
15314;BME280;7757;52.626;4.746;2022-09-30T01:36:29;100651.00;;;20.50;57.64
15314;BME280;7757;52.626;4.746;2022-09-30T01:39:10;100648.53;;;20.48;57.72
15314;BME280;7757;52.626;4.746;2022-09-30T01:41:43;100647.16;;;20.46;57.60
15314;BME280;7757;52.626;4.746;2022-09-30T01:44:12;100647.41;;;20.44;57.81
15314;BME280;7757;52.626;4.746;2022-09-30T01:46:46;100649.28;;;20.44;57.67
15314;BME280;7757;52.626;4.746;2022-09-30T01:49:18;100644.44;;;20.46;57.51
15314;BME280;7757;52.626;4.746;2022-09-30T01:51:52;100633.25;;;20.42;57.60
15314;BME280;7757;52.626;4.746;2022-09-30T01:54:25;100625.94;;;20.43;57.65
15314;BME280;7757;52.626;4.746;2022-09-30T01:57:00;100622.63;;;20.41;57.64
15314;BME280;7757;52.626;4.746;2022-09-30T01:59:31;100629.97;;;20.40;57.55
15314;BME280;7757;52.626;4.746;2022-09-30T02:02:04;100619.91;;;20.41;57.88
15314;BME280;7757;52.626;4.746;2022-09-30T02:04:34;100620.19;;;20.39;57.51
15314;BME280;7757;52.626;4.746;2022-09-30T02:07:04;100625.63;;;20.39;57.63
15314;BME280;7757;52.626;4.746;2022-09-30T02:09:36;100618.50;;;20.33;57.31
15314;BME280;7757;52.626;4.746;2022-09-30T02:12:08;100635.63;;;20.34;57.68
15314;BME280;7757;52.626;4.746;2022-09-30T02:14:40;100641.03;;;20.34;57.37
15314;BME280;7757;52.626;4.746;2022-09-30T02:17:13;100629.34;;;20.33;58.07
15314;BME280;7757;52.626;4.746;2022-09-30T02:19:44;100629.88;;;20.30;57.70
15314;BME280;7757;52.626;4.746;2022-09-30T02:22:15;100648.59;;;20.32;57.38
15314;BME280;7757;52.626;4.746;2022-09-30T02:24:43;100649.13;;;20.29;57.40
15314;BME280;7757;52.626;4.746;2022-09-30T02:27:16;100646.41;;;20.29;58.07
15314;BME280;7757;52.626;4.746;2022-09-30T02:29:47;100650.22;;;20.28;57.59
15314;BME280;7757;52.626;4.746;2022-09-30T02:32:21;100644.19;;;20.26;57.91
15314;BME280;7757;52.626;4.746;2022-09-30T02:34:52;100640.41;;;20.27;57.42
15314;BME280;7757;52.626;4.746;2022-09-30T02:37:26;100648.22;;;20.23;57.68
15314;BME280;7757;52.626;4.746;2022-09-30T02:39:57;100654.47;;;20.24;57.86
15314;BME280;7757;52.626;4.746;2022-09-30T02:42:27;100651.44;;;20.20;57.76
15314;BME280;7757;52.626;4.746;2022-09-30T02:44:58;100652.53;;;20.19;57.83
15314;BME280;7757;52.626;4.746;2022-09-30T02:47:32;100652.25;;;20.21;57.55
15314;BME280;7757;52.626;4.746;2022-09-30T02:50:01;100647.88;;;20.20;57.63
15314;BME280;7757;52.626;4.746;2022-09-30T02:52:41;100651.94;;;20.17;57.40
15314;BME280;7757;52.626;4.746;2022-09-30T02:55:14;100654.41;;;20.19;57.42
15314;BME280;7757;52.626;4.746;2022-09-30T02:57:54;100654.91;;;20.16;57.47
15314;BME280;7757;52.626;4.746;2022-09-30T03:00:23;100654.34;;;20.14;57.54
15314;BME280;7757;52.626;4.746;2022-09-30T03:02:53;100658.69;;;20.15;57.78
15314;BME280;7757;52.626;4.746;2022-09-30T03:05:22;100657.63;;;20.16;57.82
15314;BME280;7757;52.626;4.746;2022-09-30T03:07:48;100669.84;;;20.13;57.51
15314;BME280;7757;52.626;4.746;2022-09-30T03:10:16;100664.31;;;20.08;57.47
15314;BME280;7757;52.626;4.746;2022-09-30T03:12:54;100670.34;;;20.10;57.35
15314;BME280;7757;52.626;4.746;2022-09-30T03:15:33;100655.56;;;20.01;57.76
15314;BME280;7757;52.626;4.746;2022-09-30T03:18:22;100678.97;;;20.07;57.73
15314;BME280;7757;52.626;4.746;2022-09-30T03:21:04;100680.88;;;20.07;57.53
15314;BME280;7757;52.626;4.746;2022-09-30T03:23:59;100684.91;;;20.04;57.49
15314;BME280;7757;52.626;4.746;2022-09-30T03:26:37;100681.69;;;20.07;57.60
15314;BME280;7757;52.626;4.746;2022-09-30T03:29:12;100665.81;;;19.99;57.67
15314;BME280;7757;52.626;4.746;2022-09-30T03:31:50;100680.03;;;20.06;57.77
15314;BME280;7757;52.626;4.746;2022-09-30T03:34:25;100691.97;;;20.05;57.45
15314;BME280;7757;52.626;4.746;2022-09-30T03:36:59;100685.16;;;20.02;57.46
15314;BME280;7757;52.626;4.746;2022-09-30T03:39:39;100690.03;;;20.00;57.51
15314;BME280;7757;52.626;4.746;2022-09-30T03:42:13;100692.47;;;20.02;57.74
15314;BME280;7757;52.626;4.746;2022-09-30T03:44:45;100696.50;;;19.99;57.56
15314;BME280;7757;52.626;4.746;2022-09-30T03:47:16;100699.22;;;19.99;57.74
15314;BME280;7757;52.626;4.746;2022-09-30T03:49:49;100694.88;;;19.98;57.56
15314;BME280;7757;52.626;4.746;2022-09-30T03:52:17;100694.31;;;19.96;57.77
15314;BME280;7757;52.626;4.746;2022-09-30T03:54:51;100693.25;;;19.97;57.17
15314;BME280;7757;52.626;4.746;2022-09-30T03:57:18;100689.47;;;19.98;57.54
15314;BME280;7757;52.626;4.746;2022-09-30T03:59:45;100688.03;;;19.96;57.46
15314;BME280;7757;52.626;4.746;2022-09-30T04:02:11;100693.25;;;19.97;57.37
15314;BME280;7757;52.626;4.746;2022-09-30T04:04:38;100695.63;;;19.94;57.49
15314;BME280;7757;52.626;4.746;2022-09-30T04:07:07;100696.47;;;19.94;57.29
15314;BME280;7757;52.626;4.746;2022-09-30T04:09:34;100695.56;;;19.89;57.37
15314;BME280;7757;52.626;4.746;2022-09-30T04:12:01;100690.69;;;19.91;57.10
15314;BME280;7757;52.626;4.746;2022-09-30T04:14:28;100690.69;;;19.91;57.46
15314;BME280;7757;52.626;4.746;2022-09-30T04:16:54;100688.47;;;19.88;57.34
15314;BME280;7757;52.626;4.746;2022-09-30T04:19:21;100686.59;;;19.88;57.79
15314;BME280;7757;52.626;4.746;2022-09-30T04:21:50;100690.63;;;19.86;57.42
15314;BME280;7757;52.626;4.746;2022-09-30T04:24:18;100688.75;;;19.86;57.68
15314;BME280;7757;52.626;4.746;2022-09-30T04:26:44;100687.38;;;19.84;57.73
15314;BME280;7757;52.626;4.746;2022-09-30T04:29:11;100696.31;;;19.84;57.29
15314;BME280;7757;52.626;4.746;2022-09-30T04:31:37;100694.69;;;19.83;57.32
15314;BME280;7757;52.626;4.746;2022-09-30T04:34:04;100700.09;;;19.83;57.51
15314;BME280;7757;52.626;4.746;2022-09-30T04:36:30;100698.22;;;19.84;57.14
15314;BME280;7757;52.626;4.746;2022-09-30T04:38:57;100703.88;;;19.82;57.51
15314;BME280;7757;52.626;4.746;2022-09-30T04:41:25;100709.56;;;19.81;57.67
15314;BME280;7757;52.626;4.746;2022-09-30T04:43:51;100713.34;;;19.80;57.41
15314;BME280;7757;52.626;4.746;2022-09-30T04:46:20;100711.69;;;19.79;57.86
15314;BME280;7757;52.626;4.746;2022-09-30T04:48:46;100715.50;;;19.78;57.49
15314;BME280;7757;52.626;4.746;2022-09-30T04:51:14;100725.75;;;19.76;57.80
15314;BME280;7757;52.626;4.746;2022-09-30T04:53:41;100721.72;;;19.78;57.94
15314;BME280;7757;52.626;4.746;2022-09-30T04:56:08;100730.13;;;19.77;57.80
15314;BME280;7757;52.626;4.746;2022-09-30T04:58:36;100734.16;;;19.74;57.24
15314;BME280;7757;52.626;4.746;2022-09-30T05:01:04;100740.97;;;19.77;57.89
15314;BME280;7757;52.626;4.746;2022-09-30T05:03:31;100736.06;;;19.74;57.97
15314;BME280;7757;52.626;4.746;2022-09-30T05:05:58;100738.19;;;19.72;57.59
15314;BME280;7757;52.626;4.746;2022-09-30T05:08:24;100738.19;;;19.72;57.88
15314;BME280;7757;52.626;4.746;2022-09-30T05:10:55;100740.09;;;19.71;57.89
15314;BME280;7757;52.626;4.746;2022-09-30T05:13:22;100742.81;;;19.71;57.43
15314;BME280;7757;52.626;4.746;2022-09-30T05:15:51;100738.19;;;19.72;57.65
15314;BME280;7757;52.626;4.746;2022-09-30T05:18:18;100737.38;;;19.71;57.63
15314;BME280;7757;52.626;4.746;2022-09-30T05:20:44;100741.72;;;19.72;57.72
15314;BME280;7757;52.626;4.746;2022-09-30T05:23:13;100738.19;;;19.72;57.57
15314;BME280;7757;52.626;4.746;2022-09-30T05:25:41;100732.19;;;19.70;57.49
15314;BME280;7757;52.626;4.746;2022-09-30T05:28:07;100734.91;;;19.70;57.52
15314;BME280;7757;52.626;4.746;2022-09-30T05:30:34;100733.00;;;19.70;57.58
15314;BME280;7757;52.626;4.746;2022-09-30T05:33:01;100731.69;;;19.73;57.73
15314;BME280;7757;52.626;4.746;2022-09-30T05:35:28;100733.84;;;19.71;57.70
15314;BME280;7757;52.626;4.746;2022-09-30T05:37:54;100735.16;;;19.68;57.64
15314;BME280;7757;52.626;4.746;2022-09-30T05:40:21;100736.22;;;19.67;57.30
15314;BME280;7757;52.626;4.746;2022-09-30T05:42:47;100734.66;;;19.71;57.46
15314;BME280;7757;52.626;4.746;2022-09-30T05:45:14;100735.50;;;19.72;57.26
15314;BME280;7757;52.626;4.746;2022-09-30T05:47:50;100732.78;;;19.72;57.07
15314;BME280;7757;52.626;4.746;2022-09-30T05:50:18;100731.34;;;19.69;57.03
15314;BME280;7757;52.626;4.746;2022-09-30T05:52:45;100731.13;;;19.71;57.09
15314;BME280;7757;52.626;4.746;2022-09-30T05:55:14;100724.63;;;19.72;56.74
15314;BME280;7757;52.626;4.746;2022-09-30T05:57:40;100726.53;;;19.71;57.21
15314;BME280;7757;52.626;4.746;2022-09-30T06:00:09;100714.50;;;19.67;56.93
15314;BME280;7757;52.626;4.746;2022-09-30T06:02:35;100727.03;;;19.68;57.02
15314;BME280;7757;52.626;4.746;2022-09-30T06:05:03;100725.19;;;19.74;57.27
15314;BME280;7757;52.626;4.746;2022-09-30T06:07:31;100723.94;;;19.81;56.65
15314;BME280;7757;52.626;4.746;2022-09-30T06:09:58;100741.44;;;20.07;57.17
15314;BME280;7757;52.626;4.746;2022-09-30T06:12:25;100737.38;;;20.26;56.61
15314;BME280;7757;52.626;4.746;2022-09-30T06:14:53;100717.53;;;20.26;56.23
15314;BME280;7757;52.626;4.746;2022-09-30T06:17:19;100741.94;;;20.42;56.29
15314;BME280;7757;52.626;4.746;2022-09-30T06:19:46;100740.66;;;20.50;56.33
15314;BME280;7757;52.626;4.746;2022-09-30T06:22:14;100740.16;;;20.53;56.08
15314;BME280;7757;52.626;4.746;2022-09-30T06:24:42;100746.53;;;20.64;55.86
15314;BME280;7757;52.626;4.746;2022-09-30T06:27:08;100749.03;;;20.70;55.93
15314;BME280;7757;52.626;4.746;2022-09-30T06:29:35;100753.22;;;20.78;55.68
15314;BME280;7757;52.626;4.746;2022-09-30T06:32:02;100750.19;;;20.74;55.81
15314;BME280;7757;52.626;4.746;2022-09-30T06:34:28;100750.00;;;20.81;56.02
15314;BME280;7757;52.626;4.746;2022-09-30T06:36:55;100746.53;;;20.90;55.96
15314;BME280;7757;52.626;4.746;2022-09-30T06:39:21;100748.75;;;20.93;55.51
15314;BME280;7757;52.626;4.746;2022-09-30T06:41:49;100753.44;;;20.98;55.48
15314;BME280;7757;52.626;4.746;2022-09-30T06:44:16;100756.78;;;21.05;55.36
15314;BME280;7757;52.626;4.746;2022-09-30T06:46:42;100760.94;;;21.12;55.00
15314;BME280;7757;52.626;4.746;2022-09-30T06:49:09;100763.41;;;21.14;55.54
15314;BME280;7757;52.626;4.746;2022-09-30T06:51:35;100761.50;;;21.14;55.38
15314;BME280;7757;52.626;4.746;2022-09-30T06:54:02;100757.44;;;21.17;54.68
15314;BME280;7757;52.626;4.746;2022-09-30T06:56:29;100737.81;;;21.10;55.47
15314;BME280;7757;52.626;4.746;2022-09-30T06:58:57;100749.59;;;21.21;54.86
15314;BME280;7757;52.626;4.746;2022-09-30T07:01:24;100748.06;;;21.30;54.97
15314;BME280;7757;52.626;4.746;2022-09-30T07:03:51;100741.41;;;21.47;54.22
15314;BME280;7757;52.626;4.746;2022-09-30T07:06:22;100743.69;;;21.60;54.10
15314;BME280;7757;52.626;4.746;2022-09-30T07:08:49;100751.72;;;21.82;53.99
15314;BME280;7757;52.626;4.746;2022-09-30T07:11:16;100741.19;;;21.91;53.67
15314;BME280;7757;52.626;4.746;2022-09-30T07:13:43;100740.72;;;21.99;53.44
15314;BME280;7757;52.626;4.746;2022-09-30T07:16:12;100739.06;;;21.98;53.64
15314;BME280;7757;52.626;4.746;2022-09-30T07:18:39;100732.84;;;22.02;53.58
15314;BME280;7757;52.626;4.746;2022-09-30T07:21:07;100742.94;;;22.07;52.74
15314;BME280;7757;52.626;4.746;2022-09-30T07:23:35;100731.81;;;22.13;52.38
15314;BME280;7757;52.626;4.746;2022-09-30T07:26:03;100730.19;;;22.17;52.54
15314;BME280;7757;52.626;4.746;2022-09-30T07:28:32;100730.47;;;22.21;52.86
15314;BME280;7757;52.626;4.746;2022-09-30T07:31:01;100727.22;;;22.19;52.50
15314;BME280;7757;52.626;4.746;2022-09-30T07:33:29;100730.50;;;22.26;52.55
15314;BME280;7757;52.626;4.746;2022-09-30T07:35:58;100727.78;;;22.26;52.43
15314;BME280;7757;52.626;4.746;2022-09-30T07:38:29;100730.50;;;22.26;52.71
15314;BME280;7757;52.626;4.746;2022-09-30T07:40:59;100732.16;;;22.27;52.52
15314;BME280;7757;52.626;4.746;2022-09-30T07:43:28;100732.44;;;22.31;52.57
15314;BME280;7757;52.626;4.746;2022-09-30T07:46:02;100735.22;;;22.41;51.81
15314;BME280;7757;52.626;4.746;2022-09-30T07:48:30;100738.25;;;22.49;51.50
15314;BME280;7757;52.626;4.746;2022-09-30T07:51:10;100733.09;;;22.58;51.42
15314;BME280;7757;52.626;4.746;2022-09-30T07:53:37;100731.25;;;22.68;51.64
15314;BME280;7757;52.626;4.746;2022-09-30T07:56:04;100733.47;;;22.82;50.66
15314;BME280;7757;52.626;4.746;2022-09-30T07:58:31;100727.22;;;22.96;50.74
15314;BME280;7757;52.626;4.746;2022-09-30T08:00:58;100735.69;;;23.10;50.19
15314;BME280;7757;52.626;4.746;2022-09-30T08:03:25;100728.34;;;23.15;50.43
15314;BME280;7757;52.626;4.746;2022-09-30T08:05:53;100736.53;;;23.30;49.97
15314;BME280;7757;52.626;4.746;2022-09-30T08:08:19;100722.63;;;23.37;49.93
15314;BME280;7757;52.626;4.746;2022-09-30T08:10:46;100727.53;;;23.35;49.30
15314;BME280;7757;52.626;4.746;2022-09-30T08:13:12;100733.03;;;23.40;49.28
15314;BME280;7757;52.626;4.746;2022-09-30T08:15:41;100738.75;;;23.54;48.93
15314;BME280;7757;52.626;4.746;2022-09-30T08:18:07;100736.81;;;23.59;48.05
15314;BME280;7757;52.626;4.746;2022-09-30T08:20:34;100733.28;;;23.69;48.34
15314;BME280;7757;52.626;4.746;2022-09-30T08:23:01;100736.53;;;23.71;48.18
15314;BME280;7757;52.626;4.746;2022-09-30T08:25:28;100737.09;;;23.78;47.94
15314;BME280;7757;52.626;4.746;2022-09-30T08:27:54;100732.44;;;23.68;47.59
15314;BME280;7757;52.626;4.746;2022-09-30T08:30:21;100729.97;;;23.06;49.16
15314;BME280;7757;52.626;4.746;2022-09-30T08:32:47;100731.03;;;23.00;48.99
15314;BME280;7757;52.626;4.746;2022-09-30T08:35:14;100728.88;;;23.02;49.89
15314;BME280;7757;52.626;4.746;2022-09-30T08:37:40;100743.31;;;22.98;49.28
15314;BME280;7757;52.626;4.746;2022-09-30T08:40:17;100734.88;;;22.99;49.46
15314;BME280;7757;52.626;4.746;2022-09-30T08:42:54;100731.88;;;23.01;49.83
15314;BME280;7757;52.626;4.746;2022-09-30T08:45:33;100727.78;;;22.98;49.42
15314;BME280;7757;52.626;4.746;2022-09-30T08:48:07;100731.31;;;22.99;49.46
15314;BME280;7757;52.626;4.746;2022-09-30T08:50:48;100731.06;;;23.05;49.11
15314;BME280;7757;52.626;4.746;2022-09-30T08:53:22;100737.34;;;23.11;49.16
15314;BME280;7757;52.626;4.746;2022-09-30T08:55:53;100738.44;;;23.15;49.44
15314;BME280;7757;52.626;4.746;2022-09-30T08:58:25;100738.72;;;23.13;49.36
15314;BME280;7757;52.626;4.746;2022-09-30T09:00:55;100730.47;;;22.88;50.08
15314;BME280;7757;52.626;4.746;2022-09-30T09:03:26;100728.81;;;22.77;49.82
15314;BME280;7757;52.626;4.746;2022-09-30T09:06:04;100730.47;;;22.78;50.30
15314;BME280;7757;52.626;4.746;2022-09-30T09:08:42;100726.00;;;22.62;50.60
15314;BME280;7757;52.626;4.746;2022-09-30T09:11:21;100728.56;;;22.84;50.10
15314;BME280;7757;52.626;4.746;2022-09-30T09:13:51;100730.50;;;22.98;49.78
15314;BME280;7757;52.626;4.746;2022-09-30T09:16:23;100710.28;;;22.84;49.84
15314;BME280;7757;52.626;4.746;2022-09-30T09:18:58;100716.84;;;22.93;50.04
15314;BME280;7757;52.626;4.746;2022-09-30T09:21:37;100726.41;;;23.01;49.37
15314;BME280;7757;52.626;4.746;2022-09-30T09:24:14;100730.50;;;23.03;49.62
15314;BME280;7757;52.626;4.746;2022-09-30T09:26:42;100732.69;;;23.06;49.29
15314;BME280;7757;52.626;4.746;2022-09-30T09:29:26;100731.06;;;23.05;49.36
15314;BME280;7757;52.626;4.746;2022-09-30T09:31:56;100734.06;;;22.99;49.47
15314;BME280;7757;52.626;4.746;2022-09-30T09:34:24;100727.19;;;22.91;49.70
15314;BME280;7757;52.626;4.746;2022-09-30T09:37:01;100735.09;;;22.83;50.36
15314;BME280;7757;52.626;4.746;2022-09-30T09:39:44;100733.94;;;22.63;50.54
15314;BME280;7757;52.626;4.746;2022-09-30T09:42:28;100733.34;;;22.46;50.68
15314;BME280;7757;52.626;4.746;2022-09-30T09:44:59;100732.75;;;22.39;51.94
15314;BME280;7757;52.626;4.746;2022-09-30T09:47:27;100732.75;;;22.39;51.60
15314;BME280;7757;52.626;4.746;2022-09-30T09:49:55;100733.66;;;22.60;51.17
15314;BME280;7757;52.626;4.746;2022-09-30T09:52:43;100739.97;;;22.65;51.61
15314;BME280;7757;52.626;4.746;2022-09-30T09:55:16;100741.66;;;22.82;51.06
15314;BME280;7757;52.626;4.746;2022-09-30T09:57:45;100736.44;;;22.70;51.37
15314;BME280;7757;52.626;4.746;2022-09-30T10:00:22;100730.75;;;22.87;51.03
15314;BME280;7757;52.626;4.746;2022-09-30T10:03:12;100735.66;;;22.85;51.42
15314;BME280;7757;52.626;4.746;2022-09-30T10:05:43;100732.91;;;22.79;51.40
15314;BME280;7757;52.626;4.746;2022-09-30T10:08:15;100732.09;;;22.79;51.08
15314;BME280;7757;52.626;4.746;2022-09-30T10:10:47;100740.28;;;22.79;51.52
15314;BME280;7757;52.626;4.746;2022-09-30T10:13:20;100732.34;;;22.77;50.85
15314;BME280;7757;52.626;4.746;2022-09-30T10:15:48;100732.31;;;22.67;51.41
15314;BME280;7757;52.626;4.746;2022-09-30T10:18:19;100717.59;;;22.68;51.83
15314;BME280;7757;52.626;4.746;2022-09-30T10:20:53;100724.13;;;22.67;51.51
15314;BME280;7757;52.626;4.746;2022-09-30T10:23:24;100721.38;;;22.52;51.49
15314;BME280;7757;52.626;4.746;2022-09-30T10:26:00;100722.16;;;22.53;51.03
15314;BME280;7757;52.626;4.746;2022-09-30T10:28:31;100715.31;;;22.40;51.78
15314;BME280;7757;52.626;4.746;2022-09-30T10:31:01;100715.84;;;22.37;51.62
15314;BME280;7757;52.626;4.746;2022-09-30T10:33:33;100713.44;;;22.46;51.60
15314;BME280;7757;52.626;4.746;2022-09-30T10:36:05;100717.78;;;22.47;51.33
15314;BME280;7757;52.626;4.746;2022-09-30T10:38:33;100713.72;;;22.49;51.49
15314;BME280;7757;52.626;4.746;2022-09-30T10:41:01;100712.91;;;22.59;51.41
15314;BME280;7757;52.626;4.746;2022-09-30T10:43:34;100715.09;;;22.52;52.21
15314;BME280;7757;52.626;4.746;2022-09-30T10:46:03;100708.00;;;22.56;51.32
15314;BME280;7757;52.626;4.746;2022-09-30T10:48:33;100712.94;;;22.64;51.37
15314;BME280;7757;52.626;4.746;2022-09-30T10:51:00;100707.25;;;22.65;51.45
15314;BME280;7757;52.626;4.746;2022-09-30T10:53:30;100720.00;;;22.55;51.63
15314;BME280;7757;52.626;4.746;2022-09-30T10:55:58;100708.00;;;22.56;51.96
15314;BME280;7757;52.626;4.746;2022-09-30T10:58:40;100710.41;;;22.42;52.03
15314;BME280;7757;52.626;4.746;2022-09-30T11:01:15;100707.44;;;22.54;51.51
15314;BME280;7757;52.626;4.746;2022-09-30T11:03:52;100703.06;;;22.53;52.10
15314;BME280;7757;52.626;4.746;2022-09-30T11:06:21;100697.44;;;22.74;50.73
15314;BME280;7757;52.626;4.746;2022-09-30T11:08:54;100697.16;;;22.71;51.77
15314;BME280;7757;52.626;4.746;2022-09-30T11:11:25;100706.91;;;22.62;52.06
15314;BME280;7757;52.626;4.746;2022-09-30T11:13:58;100706.66;;;22.58;51.69
15314;BME280;7757;52.626;4.746;2022-09-30T11:16:32;100698.81;;;22.67;51.39
15314;BME280;7757;52.626;4.746;2022-09-30T11:19:07;100698.25;;;22.65;52.15
15314;BME280;7757;52.626;4.746;2022-09-30T11:21:40;100691.16;;;22.74;51.65
15314;BME280;7757;52.626;4.746;2022-09-30T11:24:18;100691.47;;;22.77;51.30
15314;BME280;7757;52.626;4.746;2022-09-30T11:26:51;100692.78;;;22.65;51.23
15314;BME280;7757;52.626;4.746;2022-09-30T11:29:58;100685.41;;;22.60;52.22
15314;BME280;7757;52.626;4.746;2022-09-30T11:32:40;100676.88;;;22.47;52.08
15314;BME280;7757;52.626;4.746;2022-09-30T11:35:24;100675.31;;;22.61;51.80
15314;BME280;7757;52.626;4.746;2022-09-30T11:38:15;100667.13;;;22.61;51.54
15314;BME280;7757;52.626;4.746;2022-09-30T11:40:52;100665.19;;;22.56;51.33
15314;BME280;7757;52.626;4.746;2022-09-30T11:43:31;100665.19;;;22.56;51.21
15314;BME280;7757;52.626;4.746;2022-09-30T11:46:16;100661.94;;;22.59;51.82
15314;BME280;7757;52.626;4.746;2022-09-30T11:48:58;100665.22;;;22.61;51.92
15314;BME280;7757;52.626;4.746;2022-09-30T11:51:33;100650.81;;;22.66;51.49
15314;BME280;7757;52.626;4.746;2022-09-30T11:54:10;100653.22;;;22.57;51.59
15314;BME280;7757;52.626;4.746;2022-09-30T11:56:48;100652.63;;;22.50;51.72
15314;BME280;7757;52.626;4.746;2022-09-30T11:59:21;100650.97;;;22.39;52.13
15314;BME280;7757;52.626;4.746;2022-09-30T12:01:52;100650.44;;;22.37;52.80
15314;BME280;7757;52.626;4.746;2022-09-30T12:04:25;100644.69;;;22.29;52.71
15314;BME280;7757;52.626;4.746;2022-09-30T12:06:58;100653.41;;;22.31;52.21
15314;BME280;7757;52.626;4.746;2022-09-30T12:09:31;100653.19;;;22.42;52.65
15314;BME280;7757;52.626;4.746;2022-09-30T12:12:04;100649.34;;;22.33;52.91
15314;BME280;7757;52.626;4.746;2022-09-30T12:14:34;100647.72;;;22.42;52.10
15314;BME280;7757;52.626;4.746;2022-09-30T12:17:08;100639.53;;;22.42;52.47
15314;BME280;7757;52.626;4.746;2022-09-30T12:19:40;100649.66;;;22.57;51.74
15314;BME280;7757;52.626;4.746;2022-09-30T12:22:11;100652.38;;;22.57;51.78
15314;BME280;7757;52.626;4.746;2022-09-30T12:24:41;100651.84;;;22.55;51.92
15314;BME280;7757;52.626;4.746;2022-09-30T12:27:14;100651.84;;;22.55;51.80
15314;BME280;7757;52.626;4.746;2022-09-30T12:29:48;100640.94;;;22.55;51.72
15314;BME280;7757;52.626;4.746;2022-09-30T12:35:47;100636.31;;;22.60;52.16
15314;BME280;7757;52.626;4.746;2022-09-30T12:38:31;100626.81;;;22.68;52.08
15314;BME280;7757;52.626;4.746;2022-09-30T12:41:14;100635.22;;;22.56;51.76
15314;BME280;7757;52.626;4.746;2022-09-30T12:44:17;100624.88;;;22.63;51.77
15314;BME280;7757;52.626;4.746;2022-09-30T12:47:02;100616.66;;;22.53;52.02
15314;BME280;7757;52.626;4.746;2022-09-30T12:49:37;100618.59;;;22.63;51.77
15314;BME280;7757;52.626;4.746;2022-09-30T12:52:11;100614.00;;;22.68;51.33
15314;BME280;7757;52.626;4.746;2022-09-30T12:54:41;100612.94;;;22.64;51.91
15314;BME280;7757;52.626;4.746;2022-09-30T12:57:09;100605.25;;;22.61;52.17
15314;BME280;7757;52.626;4.746;2022-09-30T12:59:38;100608.50;;;22.53;51.68
15314;BME280;7757;52.626;4.746;2022-09-30T13:02:26;100591.66;;;22.66;51.52
15314;BME280;7757;52.626;4.746;2022-09-30T13:09:03;100597.63;;;22.58;51.85
15314;BME280;7757;52.626;4.746;2022-09-30T13:11:37;100589.75;;;22.72;51.35
15314;BME280;7757;52.626;4.746;2022-09-30T13:14:22;100594.94;;;22.78;51.51
15314;BME280;7757;52.626;4.746;2022-09-30T13:17:01;100600.94;;;22.75;51.65
15314;BME280;7757;52.626;4.746;2022-09-30T13:19:32;100598.16;;;22.60;51.86
15314;BME280;7757;52.626;4.746;2022-09-30T13:25:18;100573.38;;;22.67;51.96
15314;BME280;7757;52.626;4.746;2022-09-30T13:27:46;100566.81;;;22.58;51.25
15314;BME280;7757;52.626;4.746;2022-09-30T13:30:32;100579.38;;;22.69;51.93
15314;BME280;7757;52.626;4.746;2022-09-30T13:33:29;100576.66;;;22.74;51.13
15314;BME280;7757;52.626;4.746;2022-09-30T13:36:05;100576.91;;;22.67;51.61
15314;BME280;7757;52.626;4.746;2022-09-30T13:38:38;100573.63;;;22.60;51.86
15314;BME280;7757;52.626;4.746;2022-09-30T13:41:17;100571.44;;;22.52;52.31